<?xml version="1.0" encoding="UTF-8" standalone="no" ?>
<gpx xmlns="http://www.topografix.com/GPX/1/1" xmlns:xsi="http://www.w3.org/2001/XMLSchema-instance" xsi:schemaLocation="http://www.topografix.com/GPX/1/1 http://www.topografix.com/GPX/1/1/gpx.xsd" version="1.1" creator="VisuGPX - https://www.visugpx.com">
  <metadata>
    <name>Fontainebleau, Promenade des carriers.</name>
    <desc><![CDATA[Promenade au départ du carrefour des gorges de Franchard où l'on visite un village de carriers et plusieurs abris sous roche aménagés. 
La difficulté tient aux passages sur des sentiers parfois encombrés de rebuts de fabrication des pavés. Attention aux chevilles ! ]]></desc>
  </metadata>
  <trk>
    <name><![CDATA[2019-09-25 16:46:02]]></name>
    <trkseg>
      <trkpt lat="48.40418" lon="2.63829">
        <ele>121.26</ele>
        <time>2019-09-25T11:59:44Z</time>
      </trkpt>
      <trkpt lat="48.40418" lon="2.63822">
        <ele>121.26</ele>
        <time>2019-09-25T12:00:08Z</time>
      </trkpt>
      <trkpt lat="48.40416" lon="2.63823">
        <ele>123.67</ele>
        <time>2019-09-25T12:00:32Z</time>
      </trkpt>
      <trkpt lat="48.40419" lon="2.63825">
        <ele>119.82</ele>
        <time>2019-09-25T12:00:56Z</time>
      </trkpt>
      <trkpt lat="48.40421" lon="2.63829">
        <ele>120.3</ele>
        <time>2019-09-25T12:01:18Z</time>
      </trkpt>
      <trkpt lat="48.4042" lon="2.6383">
        <ele>120.78</ele>
        <time>2019-09-25T12:01:38Z</time>
      </trkpt>
      <trkpt lat="48.4042" lon="2.63832">
        <ele>120.78</ele>
        <time>2019-09-25T12:01:56Z</time>
      </trkpt>
      <trkpt lat="48.40419" lon="2.63832">
        <ele>121.26</ele>
        <time>2019-09-25T12:02:11Z</time>
      </trkpt>
      <trkpt lat="48.40419" lon="2.63825">
        <ele>124.15</ele>
        <time>2019-09-25T12:02:31Z</time>
      </trkpt>
      <trkpt lat="48.4042" lon="2.6383">
        <ele>122.22</ele>
        <time>2019-09-25T12:02:45Z</time>
      </trkpt>
      <trkpt lat="48.40414" lon="2.63847">
        <ele>119.82</ele>
        <time>2019-09-25T12:03:03Z</time>
      </trkpt>
      <trkpt lat="48.40406" lon="2.63857">
        <ele>119.82</ele>
        <time>2019-09-25T12:03:21Z</time>
      </trkpt>
      <trkpt lat="48.40398" lon="2.63864">
        <ele>120.78</ele>
        <time>2019-09-25T12:03:37Z</time>
      </trkpt>
      <trkpt lat="48.40394" lon="2.63865">
        <ele>123.19</ele>
        <time>2019-09-25T12:03:54Z</time>
      </trkpt>
      <trkpt lat="48.40399" lon="2.63871">
        <ele>123.67</ele>
        <time>2019-09-25T12:04:10Z</time>
      </trkpt>
      <trkpt lat="48.40406" lon="2.63885">
        <ele>131.84</ele>
        <time>2019-09-25T12:04:30Z</time>
      </trkpt>
      <trkpt lat="48.40397" lon="2.63906">
        <ele>128.47</ele>
        <time>2019-09-25T12:04:44Z</time>
      </trkpt>
      <trkpt lat="48.4039" lon="2.63926">
        <ele>123.19</ele>
        <time>2019-09-25T12:05:03Z</time>
      </trkpt>
      <trkpt lat="48.40383" lon="2.63943">
        <ele>121.74</ele>
        <time>2019-09-25T12:05:20Z</time>
      </trkpt>
      <trkpt lat="48.40379" lon="2.63962">
        <ele>120.3</ele>
        <time>2019-09-25T12:05:36Z</time>
      </trkpt>
      <trkpt lat="48.40373" lon="2.63982">
        <ele>118.86</ele>
        <time>2019-09-25T12:05:54Z</time>
      </trkpt>
      <trkpt lat="48.40368" lon="2.64001">
        <ele>115.98</ele>
        <time>2019-09-25T12:06:11Z</time>
      </trkpt>
      <trkpt lat="48.40362" lon="2.64013">
        <ele>112.61</ele>
        <time>2019-09-25T12:06:27Z</time>
      </trkpt>
      <trkpt lat="48.40356" lon="2.6403">
        <ele>110.69</ele>
        <time>2019-09-25T12:06:43Z</time>
      </trkpt>
      <trkpt lat="48.40351" lon="2.64046">
        <ele>106.84</ele>
        <time>2019-09-25T12:07:01Z</time>
      </trkpt>
      <trkpt lat="48.40352" lon="2.64056">
        <ele>112.61</ele>
        <time>2019-09-25T12:07:18Z</time>
      </trkpt>
      <trkpt lat="48.4035" lon="2.64073">
        <ele>114.53</ele>
        <time>2019-09-25T12:07:34Z</time>
      </trkpt>
      <trkpt lat="48.40347" lon="2.64094">
        <ele>115.98</ele>
        <time>2019-09-25T12:07:53Z</time>
      </trkpt>
      <trkpt lat="48.40346" lon="2.64104">
        <ele>115.5</ele>
        <time>2019-09-25T12:08:08Z</time>
      </trkpt>
      <trkpt lat="48.40346" lon="2.6412">
        <ele>115.5</ele>
        <time>2019-09-25T12:08:23Z</time>
      </trkpt>
      <trkpt lat="48.40342" lon="2.64145">
        <ele>108.77</ele>
        <time>2019-09-25T12:08:39Z</time>
      </trkpt>
      <trkpt lat="48.40339" lon="2.64167">
        <ele>99.63</ele>
        <time>2019-09-25T12:08:57Z</time>
      </trkpt>
      <trkpt lat="48.40334" lon="2.64189">
        <ele>92.42</ele>
        <time>2019-09-25T12:09:13Z</time>
      </trkpt>
      <trkpt lat="48.40331" lon="2.64211">
        <ele>90.02</ele>
        <time>2019-09-25T12:09:28Z</time>
      </trkpt>
      <trkpt lat="48.4033" lon="2.6423">
        <ele>84.73</ele>
        <time>2019-09-25T12:09:44Z</time>
      </trkpt>
      <trkpt lat="48.40326" lon="2.64254">
        <ele>88.1</ele>
        <time>2019-09-25T12:09:59Z</time>
      </trkpt>
      <trkpt lat="48.40323" lon="2.64272">
        <ele>92.42</ele>
        <time>2019-09-25T12:10:12Z</time>
      </trkpt>
      <trkpt lat="48.4032" lon="2.64292">
        <ele>88.1</ele>
        <time>2019-09-25T12:10:28Z</time>
      </trkpt>
      <trkpt lat="48.40319" lon="2.64312">
        <ele>84.25</ele>
        <time>2019-09-25T12:10:43Z</time>
      </trkpt>
      <trkpt lat="48.40315" lon="2.64341">
        <ele>81.85</ele>
        <time>2019-09-25T12:10:59Z</time>
      </trkpt>
      <trkpt lat="48.40311" lon="2.64359">
        <ele>78.97</ele>
        <time>2019-09-25T12:11:14Z</time>
      </trkpt>
      <trkpt lat="48.40307" lon="2.64382">
        <ele>73.68</ele>
        <time>2019-09-25T12:11:29Z</time>
      </trkpt>
      <trkpt lat="48.40304" lon="2.64406">
        <ele>72.24</ele>
        <time>2019-09-25T12:11:43Z</time>
      </trkpt>
      <trkpt lat="48.40301" lon="2.64423">
        <ele>75.6</ele>
        <time>2019-09-25T12:11:57Z</time>
      </trkpt>
      <trkpt lat="48.40301" lon="2.6444">
        <ele>86.66</ele>
        <time>2019-09-25T12:12:02Z</time>
      </trkpt>
      <trkpt lat="48.40305" lon="2.64458">
        <ele>87.62</ele>
        <time>2019-09-25T12:12:16Z</time>
      </trkpt>
      <trkpt lat="48.40312" lon="2.64472">
        <ele>88.1</ele>
        <time>2019-09-25T12:12:34Z</time>
      </trkpt>
      <trkpt lat="48.40313" lon="2.64496">
        <ele>92.9</ele>
        <time>2019-09-25T12:12:48Z</time>
      </trkpt>
      <trkpt lat="48.40315" lon="2.64514">
        <ele>91.94</ele>
        <time>2019-09-25T12:13:02Z</time>
      </trkpt>
      <trkpt lat="48.40324" lon="2.64522">
        <ele>93.87</ele>
        <time>2019-09-25T12:13:18Z</time>
      </trkpt>
      <trkpt lat="48.40334" lon="2.64522">
        <ele>99.15</ele>
        <time>2019-09-25T12:13:34Z</time>
      </trkpt>
      <trkpt lat="48.40334" lon="2.64526">
        <ele>101.08</ele>
        <time>2019-09-25T12:13:48Z</time>
      </trkpt>
      <trkpt lat="48.40343" lon="2.64523">
        <ele>102.04</ele>
        <time>2019-09-25T12:14:02Z</time>
      </trkpt>
      <trkpt lat="48.40349" lon="2.64521">
        <ele>104.92</ele>
        <time>2019-09-25T12:14:18Z</time>
      </trkpt>
      <trkpt lat="48.40357" lon="2.64527">
        <ele>107.32</ele>
        <time>2019-09-25T12:14:34Z</time>
      </trkpt>
      <trkpt lat="48.40362" lon="2.64541">
        <ele>112.13</ele>
        <time>2019-09-25T12:14:50Z</time>
      </trkpt>
      <trkpt lat="48.40366" lon="2.64549">
        <ele>113.09</ele>
        <time>2019-09-25T12:15:04Z</time>
      </trkpt>
      <trkpt lat="48.40361" lon="2.64554">
        <ele>112.13</ele>
        <time>2019-09-25T12:15:23Z</time>
      </trkpt>
      <trkpt lat="48.40357" lon="2.64551">
        <ele>111.65</ele>
        <time>2019-09-25T12:15:47Z</time>
      </trkpt>
      <trkpt lat="48.40358" lon="2.6454">
        <ele>112.13</ele>
        <time>2019-09-25T12:16:11Z</time>
      </trkpt>
      <trkpt lat="48.40364" lon="2.6454">
        <ele>111.65</ele>
        <time>2019-09-25T12:16:32Z</time>
      </trkpt>
      <trkpt lat="48.40368" lon="2.64541">
        <ele>112.13</ele>
        <time>2019-09-25T12:16:48Z</time>
      </trkpt>
      <trkpt lat="48.40369" lon="2.64538">
        <ele>113.57</ele>
        <time>2019-09-25T12:17:11Z</time>
      </trkpt>
      <trkpt lat="48.40365" lon="2.64549">
        <ele>110.69</ele>
        <time>2019-09-25T12:17:30Z</time>
      </trkpt>
      <trkpt lat="48.40364" lon="2.64554">
        <ele>112.61</ele>
        <time>2019-09-25T12:17:48Z</time>
      </trkpt>
      <trkpt lat="48.40365" lon="2.64562">
        <ele>112.13</ele>
        <time>2019-09-25T12:18:01Z</time>
      </trkpt>
      <trkpt lat="48.40364" lon="2.64577">
        <ele>109.73</ele>
        <time>2019-09-25T12:18:18Z</time>
      </trkpt>
      <trkpt lat="48.40364" lon="2.64591">
        <ele>107.32</ele>
        <time>2019-09-25T12:18:32Z</time>
      </trkpt>
      <trkpt lat="48.40364" lon="2.64608">
        <ele>105.88</ele>
        <time>2019-09-25T12:18:44Z</time>
      </trkpt>
      <trkpt lat="48.40368" lon="2.64626">
        <ele>103</ele>
        <time>2019-09-25T12:19:00Z</time>
      </trkpt>
      <trkpt lat="48.40379" lon="2.64642">
        <ele>103.48</ele>
        <time>2019-09-25T12:19:15Z</time>
      </trkpt>
      <trkpt lat="48.40388" lon="2.64652">
        <ele>104.44</ele>
        <time>2019-09-25T12:19:30Z</time>
      </trkpt>
      <trkpt lat="48.40399" lon="2.64665">
        <ele>108.29</ele>
        <time>2019-09-25T12:19:45Z</time>
      </trkpt>
      <trkpt lat="48.40401" lon="2.64675">
        <ele>109.73</ele>
        <time>2019-09-25T12:20:00Z</time>
      </trkpt>
      <trkpt lat="48.40398" lon="2.64686">
        <ele>114.53</ele>
        <time>2019-09-25T12:20:23Z</time>
      </trkpt>
      <trkpt lat="48.40397" lon="2.64699">
        <ele>114.53</ele>
        <time>2019-09-25T12:20:44Z</time>
      </trkpt>
      <trkpt lat="48.40393" lon="2.64703">
        <ele>117.9</ele>
        <time>2019-09-25T12:21:08Z</time>
      </trkpt>
      <trkpt lat="48.40387" lon="2.64706">
        <ele>117.42</ele>
        <time>2019-09-25T12:21:27Z</time>
      </trkpt>
      <trkpt lat="48.40386" lon="2.64713">
        <ele>116.46</ele>
        <time>2019-09-25T12:21:44Z</time>
      </trkpt>
      <trkpt lat="48.40389" lon="2.64722">
        <ele>117.42</ele>
        <time>2019-09-25T12:22:00Z</time>
      </trkpt>
      <trkpt lat="48.40389" lon="2.64722">
        <ele>116.94</ele>
        <time>2019-09-25T12:22:17Z</time>
      </trkpt>
      <trkpt lat="48.4039" lon="2.64723">
        <ele>119.82</ele>
        <time>2019-09-25T12:22:42Z</time>
      </trkpt>
      <trkpt lat="48.40396" lon="2.6472">
        <ele>119.34</ele>
        <time>2019-09-25T12:23:05Z</time>
      </trkpt>
      <trkpt lat="48.40395" lon="2.64719">
        <ele>116.94</ele>
        <time>2019-09-25T12:23:32Z</time>
      </trkpt>
      <trkpt lat="48.40396" lon="2.64722">
        <ele>120.3</ele>
        <time>2019-09-25T12:24:08Z</time>
      </trkpt>
      <trkpt lat="48.40394" lon="2.64722">
        <ele>118.86</ele>
        <time>2019-09-25T12:24:42Z</time>
      </trkpt>
      <trkpt lat="48.40394" lon="2.64718">
        <ele>118.86</ele>
        <time>2019-09-25T12:25:05Z</time>
      </trkpt>
      <trkpt lat="48.40394" lon="2.64719">
        <ele>121.74</ele>
        <time>2019-09-25T12:25:27Z</time>
      </trkpt>
      <trkpt lat="48.40393" lon="2.64724">
        <ele>120.78</ele>
        <time>2019-09-25T12:25:48Z</time>
      </trkpt>
      <trkpt lat="48.40391" lon="2.64737">
        <ele>118.38</ele>
        <time>2019-09-25T12:26:04Z</time>
      </trkpt>
      <trkpt lat="48.4039" lon="2.6474">
        <ele>120.3</ele>
        <time>2019-09-25T12:26:32Z</time>
      </trkpt>
      <trkpt lat="48.4039" lon="2.64741">
        <ele>120.3</ele>
        <time>2019-09-25T12:26:50Z</time>
      </trkpt>
      <trkpt lat="48.40393" lon="2.64741">
        <ele>118.38</ele>
        <time>2019-09-25T12:27:06Z</time>
      </trkpt>
      <trkpt lat="48.40388" lon="2.64736">
        <ele>119.34</ele>
        <time>2019-09-25T12:27:35Z</time>
      </trkpt>
      <trkpt lat="48.40388" lon="2.64732">
        <ele>119.34</ele>
        <time>2019-09-25T12:27:56Z</time>
      </trkpt>
      <trkpt lat="48.40386" lon="2.64731">
        <ele>122.22</ele>
        <time>2019-09-25T12:28:17Z</time>
      </trkpt>
      <trkpt lat="48.40385" lon="2.64738">
        <ele>124.15</ele>
        <time>2019-09-25T12:28:43Z</time>
      </trkpt>
      <trkpt lat="48.40389" lon="2.64743">
        <ele>121.74</ele>
        <time>2019-09-25T12:29:05Z</time>
      </trkpt>
      <trkpt lat="48.40389" lon="2.64734">
        <ele>116.94</ele>
        <time>2019-09-25T12:29:29Z</time>
      </trkpt>
      <trkpt lat="48.40387" lon="2.64725">
        <ele>116.94</ele>
        <time>2019-09-25T12:29:48Z</time>
      </trkpt>
      <trkpt lat="48.40383" lon="2.64722">
        <ele>119.82</ele>
        <time>2019-09-25T12:30:03Z</time>
      </trkpt>
      <trkpt lat="48.40381" lon="2.64712">
        <ele>121.26</ele>
        <time>2019-09-25T12:30:22Z</time>
      </trkpt>
      <trkpt lat="48.40384" lon="2.64705">
        <ele>123.67</ele>
        <time>2019-09-25T12:30:44Z</time>
      </trkpt>
      <trkpt lat="48.40383" lon="2.64698">
        <ele>126.07</ele>
        <time>2019-09-25T12:31:02Z</time>
      </trkpt>
      <trkpt lat="48.40387" lon="2.64693">
        <ele>125.59</ele>
        <time>2019-09-25T12:31:22Z</time>
      </trkpt>
      <trkpt lat="48.4039" lon="2.64688">
        <ele>122.22</ele>
        <time>2019-09-25T12:31:42Z</time>
      </trkpt>
      <trkpt lat="48.40394" lon="2.64683">
        <ele>121.26</ele>
        <time>2019-09-25T12:31:58Z</time>
      </trkpt>
      <trkpt lat="48.40394" lon="2.64673">
        <ele>118.86</ele>
        <time>2019-09-25T12:32:14Z</time>
      </trkpt>
      <trkpt lat="48.40402" lon="2.6468">
        <ele>116.46</ele>
        <time>2019-09-25T12:32:28Z</time>
      </trkpt>
      <trkpt lat="48.40409" lon="2.64684">
        <ele>117.9</ele>
        <time>2019-09-25T12:32:40Z</time>
      </trkpt>
      <trkpt lat="48.40412" lon="2.64692">
        <ele>116.94</ele>
        <time>2019-09-25T12:32:58Z</time>
      </trkpt>
      <trkpt lat="48.40419" lon="2.64697">
        <ele>117.42</ele>
        <time>2019-09-25T12:33:19Z</time>
      </trkpt>
      <trkpt lat="48.40429" lon="2.64707">
        <ele>114.05</ele>
        <time>2019-09-25T12:33:38Z</time>
      </trkpt>
      <trkpt lat="48.40434" lon="2.6471">
        <ele>111.17</ele>
        <time>2019-09-25T12:33:54Z</time>
      </trkpt>
      <trkpt lat="48.4044" lon="2.64721">
        <ele>107.81</ele>
        <time>2019-09-25T12:34:11Z</time>
      </trkpt>
      <trkpt lat="48.40445" lon="2.64728">
        <ele>109.25</ele>
        <time>2019-09-25T12:34:29Z</time>
      </trkpt>
      <trkpt lat="48.40449" lon="2.64728">
        <ele>107.81</ele>
        <time>2019-09-25T12:34:45Z</time>
      </trkpt>
      <trkpt lat="48.40457" lon="2.64734">
        <ele>105.88</ele>
        <time>2019-09-25T12:35:02Z</time>
      </trkpt>
      <trkpt lat="48.40467" lon="2.64745">
        <ele>106.36</ele>
        <time>2019-09-25T12:35:19Z</time>
      </trkpt>
      <trkpt lat="48.40475" lon="2.64747">
        <ele>103.96</ele>
        <time>2019-09-25T12:35:35Z</time>
      </trkpt>
      <trkpt lat="48.40486" lon="2.64755">
        <ele>103.48</ele>
        <time>2019-09-25T12:35:53Z</time>
      </trkpt>
      <trkpt lat="48.40498" lon="2.6476">
        <ele>101.56</ele>
        <time>2019-09-25T12:36:09Z</time>
      </trkpt>
      <trkpt lat="48.40509" lon="2.6477">
        <ele>99.15</ele>
        <time>2019-09-25T12:36:25Z</time>
      </trkpt>
      <trkpt lat="48.40521" lon="2.6477">
        <ele>93.39</ele>
        <time>2019-09-25T12:36:42Z</time>
      </trkpt>
      <trkpt lat="48.40534" lon="2.64775">
        <ele>90.5</ele>
        <time>2019-09-25T12:36:59Z</time>
      </trkpt>
      <trkpt lat="48.4055" lon="2.6478">
        <ele>90.5</ele>
        <time>2019-09-25T12:37:15Z</time>
      </trkpt>
      <trkpt lat="48.40567" lon="2.64783">
        <ele>89.06</ele>
        <time>2019-09-25T12:37:31Z</time>
      </trkpt>
      <trkpt lat="48.40577" lon="2.64794">
        <ele>88.1</ele>
        <time>2019-09-25T12:37:46Z</time>
      </trkpt>
      <trkpt lat="48.40579" lon="2.64812">
        <ele>88.58</ele>
        <time>2019-09-25T12:38:03Z</time>
      </trkpt>
      <trkpt lat="48.40577" lon="2.64831">
        <ele>90.02</ele>
        <time>2019-09-25T12:38:21Z</time>
      </trkpt>
      <trkpt lat="48.40576" lon="2.64852">
        <ele>88.58</ele>
        <time>2019-09-25T12:38:37Z</time>
      </trkpt>
      <trkpt lat="48.40568" lon="2.6487">
        <ele>88.1</ele>
        <time>2019-09-25T12:38:55Z</time>
      </trkpt>
      <trkpt lat="48.40561" lon="2.64885">
        <ele>85.69</ele>
        <time>2019-09-25T12:39:13Z</time>
      </trkpt>
      <trkpt lat="48.40551" lon="2.64899">
        <ele>83.29</ele>
        <time>2019-09-25T12:39:30Z</time>
      </trkpt>
      <trkpt lat="48.40544" lon="2.64917">
        <ele>84.25</ele>
        <time>2019-09-25T12:39:46Z</time>
      </trkpt>
      <trkpt lat="48.40535" lon="2.64933">
        <ele>83.29</ele>
        <time>2019-09-25T12:40:03Z</time>
      </trkpt>
      <trkpt lat="48.40526" lon="2.64949">
        <ele>82.33</ele>
        <time>2019-09-25T12:40:18Z</time>
      </trkpt>
      <trkpt lat="48.40517" lon="2.64968">
        <ele>81.37</ele>
        <time>2019-09-25T12:40:34Z</time>
      </trkpt>
      <trkpt lat="48.40506" lon="2.64982">
        <ele>78.48</ele>
        <time>2019-09-25T12:40:51Z</time>
      </trkpt>
      <trkpt lat="48.40494" lon="2.64995">
        <ele>77.52</ele>
        <time>2019-09-25T12:41:07Z</time>
      </trkpt>
      <trkpt lat="48.40482" lon="2.65009">
        <ele>77.52</ele>
        <time>2019-09-25T12:41:25Z</time>
      </trkpt>
      <trkpt lat="48.40469" lon="2.6503">
        <ele>77.04</ele>
        <time>2019-09-25T12:41:42Z</time>
      </trkpt>
      <trkpt lat="48.4046" lon="2.65048">
        <ele>77.52</ele>
        <time>2019-09-25T12:41:57Z</time>
      </trkpt>
      <trkpt lat="48.40451" lon="2.65064">
        <ele>75.6</ele>
        <time>2019-09-25T12:42:13Z</time>
      </trkpt>
      <trkpt lat="48.40443" lon="2.65078">
        <ele>74.16</ele>
        <time>2019-09-25T12:42:29Z</time>
      </trkpt>
      <trkpt lat="48.40433" lon="2.65097">
        <ele>74.16</ele>
        <time>2019-09-25T12:42:46Z</time>
      </trkpt>
      <trkpt lat="48.40419" lon="2.65111">
        <ele>74.16</ele>
        <time>2019-09-25T12:43:02Z</time>
      </trkpt>
      <trkpt lat="48.40406" lon="2.6512">
        <ele>72.72</ele>
        <time>2019-09-25T12:43:18Z</time>
      </trkpt>
      <trkpt lat="48.40395" lon="2.6513">
        <ele>73.68</ele>
        <time>2019-09-25T12:43:34Z</time>
      </trkpt>
      <trkpt lat="48.4038" lon="2.65142">
        <ele>73.2</ele>
        <time>2019-09-25T12:43:50Z</time>
      </trkpt>
      <trkpt lat="48.40372" lon="2.65149">
        <ele>74.16</ele>
        <time>2019-09-25T12:44:02Z</time>
      </trkpt>
      <trkpt lat="48.40362" lon="2.6516">
        <ele>76.56</ele>
        <time>2019-09-25T12:44:19Z</time>
      </trkpt>
      <trkpt lat="48.40352" lon="2.65171">
        <ele>79.93</ele>
        <time>2019-09-25T12:44:36Z</time>
      </trkpt>
      <trkpt lat="48.40346" lon="2.65179">
        <ele>82.81</ele>
        <time>2019-09-25T12:44:52Z</time>
      </trkpt>
      <trkpt lat="48.40336" lon="2.65183">
        <ele>82.33</ele>
        <time>2019-09-25T12:45:10Z</time>
      </trkpt>
      <trkpt lat="48.40324" lon="2.65184">
        <ele>82.33</ele>
        <time>2019-09-25T12:45:26Z</time>
      </trkpt>
      <trkpt lat="48.40322" lon="2.65195">
        <ele>81.37</ele>
        <time>2019-09-25T12:45:43Z</time>
      </trkpt>
      <trkpt lat="48.40318" lon="2.65209">
        <ele>78.97</ele>
        <time>2019-09-25T12:45:58Z</time>
      </trkpt>
      <trkpt lat="48.40314" lon="2.65224">
        <ele>78.97</ele>
        <time>2019-09-25T12:46:12Z</time>
      </trkpt>
      <trkpt lat="48.40307" lon="2.65238">
        <ele>85.21</ele>
        <time>2019-09-25T12:46:27Z</time>
      </trkpt>
      <trkpt lat="48.403" lon="2.65246">
        <ele>86.18</ele>
        <time>2019-09-25T12:46:44Z</time>
      </trkpt>
      <trkpt lat="48.40288" lon="2.65255">
        <ele>88.58</ele>
        <time>2019-09-25T12:47:00Z</time>
      </trkpt>
      <trkpt lat="48.40284" lon="2.65265">
        <ele>90.02</ele>
        <time>2019-09-25T12:47:15Z</time>
      </trkpt>
      <trkpt lat="48.40286" lon="2.65274">
        <ele>90.98</ele>
        <time>2019-09-25T12:47:33Z</time>
      </trkpt>
      <trkpt lat="48.40288" lon="2.6528">
        <ele>90.5</ele>
        <time>2019-09-25T12:47:55Z</time>
      </trkpt>
      <trkpt lat="48.40286" lon="2.65282">
        <ele>90.02</ele>
        <time>2019-09-25T12:48:12Z</time>
      </trkpt>
      <trkpt lat="48.4028" lon="2.65291">
        <ele>90.5</ele>
        <time>2019-09-25T12:48:35Z</time>
      </trkpt>
      <trkpt lat="48.40272" lon="2.65305">
        <ele>87.62</ele>
        <time>2019-09-25T12:48:51Z</time>
      </trkpt>
      <trkpt lat="48.40267" lon="2.6532">
        <ele>85.69</ele>
        <time>2019-09-25T12:49:08Z</time>
      </trkpt>
      <trkpt lat="48.40261" lon="2.65333">
        <ele>83.77</ele>
        <time>2019-09-25T12:49:26Z</time>
      </trkpt>
      <trkpt lat="48.40249" lon="2.65346">
        <ele>82.81</ele>
        <time>2019-09-25T12:49:42Z</time>
      </trkpt>
      <trkpt lat="48.40242" lon="2.65349">
        <ele>82.81</ele>
        <time>2019-09-25T12:49:57Z</time>
      </trkpt>
      <trkpt lat="48.40235" lon="2.65355">
        <ele>82.33</ele>
        <time>2019-09-25T12:50:15Z</time>
      </trkpt>
      <trkpt lat="48.40225" lon="2.65354">
        <ele>81.37</ele>
        <time>2019-09-25T12:50:32Z</time>
      </trkpt>
      <trkpt lat="48.40219" lon="2.65351">
        <ele>83.77</ele>
        <time>2019-09-25T12:50:52Z</time>
      </trkpt>
      <trkpt lat="48.4021" lon="2.65352">
        <ele>85.69</ele>
        <time>2019-09-25T12:51:10Z</time>
      </trkpt>
      <trkpt lat="48.40205" lon="2.65358">
        <ele>83.77</ele>
        <time>2019-09-25T12:51:27Z</time>
      </trkpt>
      <trkpt lat="48.40199" lon="2.65358">
        <ele>84.73</ele>
        <time>2019-09-25T12:51:46Z</time>
      </trkpt>
      <trkpt lat="48.40194" lon="2.65361">
        <ele>83.29</ele>
        <time>2019-09-25T12:52:05Z</time>
      </trkpt>
      <trkpt lat="48.40188" lon="2.65369">
        <ele>81.85</ele>
        <time>2019-09-25T12:52:21Z</time>
      </trkpt>
      <trkpt lat="48.40182" lon="2.65382">
        <ele>78</ele>
        <time>2019-09-25T12:52:40Z</time>
      </trkpt>
      <trkpt lat="48.40178" lon="2.65395">
        <ele>75.12</ele>
        <time>2019-09-25T12:52:54Z</time>
      </trkpt>
      <trkpt lat="48.40169" lon="2.65405">
        <ele>70.31</ele>
        <time>2019-09-25T12:53:12Z</time>
      </trkpt>
      <trkpt lat="48.40161" lon="2.65415">
        <ele>65.51</ele>
        <time>2019-09-25T12:53:31Z</time>
      </trkpt>
      <trkpt lat="48.40159" lon="2.65428">
        <ele>66.47</ele>
        <time>2019-09-25T12:53:49Z</time>
      </trkpt>
      <trkpt lat="48.40159" lon="2.65441">
        <ele>68.39</ele>
        <time>2019-09-25T12:54:05Z</time>
      </trkpt>
      <trkpt lat="48.40157" lon="2.65456">
        <ele>69.83</ele>
        <time>2019-09-25T12:54:22Z</time>
      </trkpt>
      <trkpt lat="48.40156" lon="2.65476">
        <ele>71.27</ele>
        <time>2019-09-25T12:54:39Z</time>
      </trkpt>
      <trkpt lat="48.40154" lon="2.65493">
        <ele>71.76</ele>
        <time>2019-09-25T12:54:53Z</time>
      </trkpt>
      <trkpt lat="48.40152" lon="2.65515">
        <ele>72.24</ele>
        <time>2019-09-25T12:55:10Z</time>
      </trkpt>
      <trkpt lat="48.40151" lon="2.65535">
        <ele>72.24</ele>
        <time>2019-09-25T12:55:25Z</time>
      </trkpt>
      <trkpt lat="48.4015" lon="2.65556">
        <ele>73.2</ele>
        <time>2019-09-25T12:55:43Z</time>
      </trkpt>
      <trkpt lat="48.40148" lon="2.65582">
        <ele>71.76</ele>
        <time>2019-09-25T12:56:00Z</time>
      </trkpt>
      <trkpt lat="48.40145" lon="2.65602">
        <ele>68.87</ele>
        <time>2019-09-25T12:56:15Z</time>
      </trkpt>
      <trkpt lat="48.40145" lon="2.65622">
        <ele>68.39</ele>
        <time>2019-09-25T12:56:32Z</time>
      </trkpt>
      <trkpt lat="48.40142" lon="2.65642">
        <ele>67.43</ele>
        <time>2019-09-25T12:56:47Z</time>
      </trkpt>
      <trkpt lat="48.40141" lon="2.6567">
        <ele>68.39</ele>
        <time>2019-09-25T12:57:04Z</time>
      </trkpt>
      <trkpt lat="48.40141" lon="2.65689">
        <ele>68.87</ele>
        <time>2019-09-25T12:57:20Z</time>
      </trkpt>
      <trkpt lat="48.40139" lon="2.65715">
        <ele>69.35</ele>
        <time>2019-09-25T12:57:37Z</time>
      </trkpt>
      <trkpt lat="48.40136" lon="2.65736">
        <ele>68.87</ele>
        <time>2019-09-25T12:57:53Z</time>
      </trkpt>
      <trkpt lat="48.40134" lon="2.65756">
        <ele>66.95</ele>
        <time>2019-09-25T12:58:12Z</time>
      </trkpt>
      <trkpt lat="48.40132" lon="2.65784">
        <ele>63.58</ele>
        <time>2019-09-25T12:58:32Z</time>
      </trkpt>
      <trkpt lat="48.40129" lon="2.65801">
        <ele>63.58</ele>
        <time>2019-09-25T12:58:49Z</time>
      </trkpt>
      <trkpt lat="48.40125" lon="2.65824">
        <ele>63.1</ele>
        <time>2019-09-25T12:59:07Z</time>
      </trkpt>
      <trkpt lat="48.40126" lon="2.65849">
        <ele>65.51</ele>
        <time>2019-09-25T12:59:25Z</time>
      </trkpt>
      <trkpt lat="48.40125" lon="2.65874">
        <ele>69.35</ele>
        <time>2019-09-25T12:59:41Z</time>
      </trkpt>
      <trkpt lat="48.40124" lon="2.65893">
        <ele>70.79</ele>
        <time>2019-09-25T12:59:54Z</time>
      </trkpt>
      <trkpt lat="48.40124" lon="2.65912">
        <ele>69.83</ele>
        <time>2019-09-25T13:00:08Z</time>
      </trkpt>
      <trkpt lat="48.40124" lon="2.65941">
        <ele>71.76</ele>
        <time>2019-09-25T13:00:27Z</time>
      </trkpt>
      <trkpt lat="48.40119" lon="2.65964">
        <ele>70.79</ele>
        <time>2019-09-25T13:00:43Z</time>
      </trkpt>
      <trkpt lat="48.40114" lon="2.6598">
        <ele>67.91</ele>
        <time>2019-09-25T13:00:57Z</time>
      </trkpt>
      <trkpt lat="48.40109" lon="2.66007">
        <ele>66.47</ele>
        <time>2019-09-25T13:01:15Z</time>
      </trkpt>
      <trkpt lat="48.40108" lon="2.66023">
        <ele>67.43</ele>
        <time>2019-09-25T13:01:30Z</time>
      </trkpt>
      <trkpt lat="48.401" lon="2.66046">
        <ele>67.91</ele>
        <time>2019-09-25T13:01:47Z</time>
      </trkpt>
      <trkpt lat="48.40097" lon="2.66062">
        <ele>67.43</ele>
        <time>2019-09-25T13:02:03Z</time>
      </trkpt>
      <trkpt lat="48.40093" lon="2.66086">
        <ele>65.51</ele>
        <time>2019-09-25T13:02:20Z</time>
      </trkpt>
      <trkpt lat="48.40088" lon="2.66104">
        <ele>65.99</ele>
        <time>2019-09-25T13:02:36Z</time>
      </trkpt>
      <trkpt lat="48.40082" lon="2.6612">
        <ele>67.43</ele>
        <time>2019-09-25T13:02:51Z</time>
      </trkpt>
      <trkpt lat="48.40079" lon="2.66141">
        <ele>66.95</ele>
        <time>2019-09-25T13:03:10Z</time>
      </trkpt>
      <trkpt lat="48.40076" lon="2.66158">
        <ele>67.91</ele>
        <time>2019-09-25T13:03:25Z</time>
      </trkpt>
      <trkpt lat="48.40072" lon="2.66176">
        <ele>67.43</ele>
        <time>2019-09-25T13:03:40Z</time>
      </trkpt>
      <trkpt lat="48.40068" lon="2.66195">
        <ele>68.87</ele>
        <time>2019-09-25T13:03:56Z</time>
      </trkpt>
      <trkpt lat="48.40065" lon="2.66206">
        <ele>69.83</ele>
        <time>2019-09-25T13:04:15Z</time>
      </trkpt>
      <trkpt lat="48.40061" lon="2.66199">
        <ele>75.12</ele>
        <time>2019-09-25T13:04:40Z</time>
      </trkpt>
      <trkpt lat="48.40059" lon="2.66191">
        <ele>81.85</ele>
        <time>2019-09-25T13:05:03Z</time>
      </trkpt>
      <trkpt lat="48.4006" lon="2.66191">
        <ele>85.69</ele>
        <time>2019-09-25T13:05:29Z</time>
      </trkpt>
      <trkpt lat="48.40062" lon="2.66192">
        <ele>89.54</ele>
        <time>2019-09-25T13:05:54Z</time>
      </trkpt>
      <trkpt lat="48.40062" lon="2.66192">
        <ele>91.94</ele>
        <time>2019-09-25T13:06:22Z</time>
      </trkpt>
      <trkpt lat="48.40065" lon="2.66194">
        <ele>93.39</ele>
        <time>2019-09-25T13:06:43Z</time>
      </trkpt>
      <trkpt lat="48.40067" lon="2.66196">
        <ele>87.62</ele>
        <time>2019-09-25T13:07:12Z</time>
      </trkpt>
      <trkpt lat="48.40058" lon="2.66191">
        <ele>86.18</ele>
        <time>2019-09-25T13:07:33Z</time>
      </trkpt>
      <trkpt lat="48.40046" lon="2.66181">
        <ele>83.29</ele>
        <time>2019-09-25T13:07:51Z</time>
      </trkpt>
      <trkpt lat="48.40033" lon="2.66179">
        <ele>78.48</ele>
        <time>2019-09-25T13:08:08Z</time>
      </trkpt>
      <trkpt lat="48.40021" lon="2.66175">
        <ele>75.6</ele>
        <time>2019-09-25T13:08:23Z</time>
      </trkpt>
      <trkpt lat="48.40009" lon="2.66171">
        <ele>75.6</ele>
        <time>2019-09-25T13:08:39Z</time>
      </trkpt>
      <trkpt lat="48.39997" lon="2.66167">
        <ele>76.08</ele>
        <time>2019-09-25T13:08:55Z</time>
      </trkpt>
      <trkpt lat="48.39987" lon="2.66163">
        <ele>78</ele>
        <time>2019-09-25T13:09:11Z</time>
      </trkpt>
      <trkpt lat="48.39976" lon="2.66156">
        <ele>78.97</ele>
        <time>2019-09-25T13:09:27Z</time>
      </trkpt>
      <trkpt lat="48.39963" lon="2.66152">
        <ele>82.33</ele>
        <time>2019-09-25T13:09:45Z</time>
      </trkpt>
      <trkpt lat="48.39953" lon="2.66151">
        <ele>86.18</ele>
        <time>2019-09-25T13:10:01Z</time>
      </trkpt>
      <trkpt lat="48.39943" lon="2.66156">
        <ele>88.58</ele>
        <time>2019-09-25T13:10:21Z</time>
      </trkpt>
      <trkpt lat="48.39932" lon="2.66161">
        <ele>92.42</ele>
        <time>2019-09-25T13:10:40Z</time>
      </trkpt>
      <trkpt lat="48.39924" lon="2.66164">
        <ele>92.9</ele>
        <time>2019-09-25T13:10:55Z</time>
      </trkpt>
      <trkpt lat="48.39914" lon="2.66169">
        <ele>92.42</ele>
        <time>2019-09-25T13:11:14Z</time>
      </trkpt>
      <trkpt lat="48.39903" lon="2.66173">
        <ele>91.46</ele>
        <time>2019-09-25T13:11:32Z</time>
      </trkpt>
      <trkpt lat="48.39891" lon="2.6617">
        <ele>92.9</ele>
        <time>2019-09-25T13:11:49Z</time>
      </trkpt>
      <trkpt lat="48.39877" lon="2.66163">
        <ele>98.67</ele>
        <time>2019-09-25T13:12:05Z</time>
      </trkpt>
      <trkpt lat="48.39866" lon="2.66158">
        <ele>103.48</ele>
        <time>2019-09-25T13:12:27Z</time>
      </trkpt>
      <trkpt lat="48.39854" lon="2.6616">
        <ele>103.48</ele>
        <time>2019-09-25T13:12:45Z</time>
      </trkpt>
      <trkpt lat="48.39842" lon="2.6616">
        <ele>102.52</ele>
        <time>2019-09-25T13:13:02Z</time>
      </trkpt>
      <trkpt lat="48.39832" lon="2.66159">
        <ele>99.15</ele>
        <time>2019-09-25T13:13:18Z</time>
      </trkpt>
      <trkpt lat="48.39822" lon="2.66158">
        <ele>97.23</ele>
        <time>2019-09-25T13:13:35Z</time>
      </trkpt>
      <trkpt lat="48.39811" lon="2.6616">
        <ele>95.31</ele>
        <time>2019-09-25T13:13:54Z</time>
      </trkpt>
      <trkpt lat="48.39809" lon="2.66158">
        <ele>97.71</ele>
        <time>2019-09-25T13:14:15Z</time>
      </trkpt>
      <trkpt lat="48.39816" lon="2.66155">
        <ele>96.27</ele>
        <time>2019-09-25T13:14:28Z</time>
      </trkpt>
      <trkpt lat="48.39828" lon="2.66157">
        <ele>95.79</ele>
        <time>2019-09-25T13:14:44Z</time>
      </trkpt>
      <trkpt lat="48.39841" lon="2.66154">
        <ele>97.23</ele>
        <time>2019-09-25T13:15:05Z</time>
      </trkpt>
      <trkpt lat="48.39853" lon="2.66153">
        <ele>97.71</ele>
        <time>2019-09-25T13:15:23Z</time>
      </trkpt>
      <trkpt lat="48.39859" lon="2.66155">
        <ele>98.19</ele>
        <time>2019-09-25T13:15:39Z</time>
      </trkpt>
      <trkpt lat="48.3986" lon="2.6616">
        <ele>103.48</ele>
        <time>2019-09-25T13:16:03Z</time>
      </trkpt>
      <trkpt lat="48.39859" lon="2.6616">
        <ele>105.88</ele>
        <time>2019-09-25T13:16:25Z</time>
      </trkpt>
      <trkpt lat="48.39861" lon="2.66158">
        <ele>108.29</ele>
        <time>2019-09-25T13:16:53Z</time>
      </trkpt>
      <trkpt lat="48.39863" lon="2.66161">
        <ele>109.25</ele>
        <time>2019-09-25T13:17:25Z</time>
      </trkpt>
      <trkpt lat="48.39862" lon="2.6617">
        <ele>108.29</ele>
        <time>2019-09-25T13:17:47Z</time>
      </trkpt>
      <trkpt lat="48.39859" lon="2.66182">
        <ele>105.88</ele>
        <time>2019-09-25T13:18:04Z</time>
      </trkpt>
      <trkpt lat="48.39855" lon="2.66196">
        <ele>102.52</ele>
        <time>2019-09-25T13:18:22Z</time>
      </trkpt>
      <trkpt lat="48.3985" lon="2.66213">
        <ele>101.56</ele>
        <time>2019-09-25T13:18:41Z</time>
      </trkpt>
      <trkpt lat="48.39848" lon="2.66225">
        <ele>102.52</ele>
        <time>2019-09-25T13:18:59Z</time>
      </trkpt>
      <trkpt lat="48.39837" lon="2.66227">
        <ele>103.48</ele>
        <time>2019-09-25T13:19:22Z</time>
      </trkpt>
      <trkpt lat="48.39826" lon="2.66227">
        <ele>103</ele>
        <time>2019-09-25T13:19:37Z</time>
      </trkpt>
      <trkpt lat="48.39817" lon="2.66235">
        <ele>103.96</ele>
        <time>2019-09-25T13:19:52Z</time>
      </trkpt>
      <trkpt lat="48.39811" lon="2.66251">
        <ele>103.96</ele>
        <time>2019-09-25T13:20:08Z</time>
      </trkpt>
      <trkpt lat="48.39808" lon="2.66266">
        <ele>107.81</ele>
        <time>2019-09-25T13:20:27Z</time>
      </trkpt>
      <trkpt lat="48.39806" lon="2.66281">
        <ele>107.81</ele>
        <time>2019-09-25T13:20:44Z</time>
      </trkpt>
      <trkpt lat="48.39803" lon="2.66295">
        <ele>110.21</ele>
        <time>2019-09-25T13:20:59Z</time>
      </trkpt>
      <trkpt lat="48.39796" lon="2.66311">
        <ele>108.77</ele>
        <time>2019-09-25T13:21:18Z</time>
      </trkpt>
      <trkpt lat="48.39793" lon="2.66326">
        <ele>110.69</ele>
        <time>2019-09-25T13:21:35Z</time>
      </trkpt>
      <trkpt lat="48.39794" lon="2.66329">
        <ele>113.09</ele>
        <time>2019-09-25T13:21:49Z</time>
      </trkpt>
      <trkpt lat="48.39798" lon="2.6634">
        <ele>112.61</ele>
        <time>2019-09-25T13:22:04Z</time>
      </trkpt>
      <trkpt lat="48.39805" lon="2.66349">
        <ele>111.65</ele>
        <time>2019-09-25T13:22:23Z</time>
      </trkpt>
      <trkpt lat="48.39811" lon="2.66362">
        <ele>109.73</ele>
        <time>2019-09-25T13:22:39Z</time>
      </trkpt>
      <trkpt lat="48.39814" lon="2.66379">
        <ele>108.77</ele>
        <time>2019-09-25T13:22:58Z</time>
      </trkpt>
      <trkpt lat="48.39817" lon="2.66388">
        <ele>107.81</ele>
        <time>2019-09-25T13:23:15Z</time>
      </trkpt>
      <trkpt lat="48.39827" lon="2.66398">
        <ele>109.73</ele>
        <time>2019-09-25T13:23:34Z</time>
      </trkpt>
      <trkpt lat="48.39834" lon="2.66402">
        <ele>112.13</ele>
        <time>2019-09-25T13:23:48Z</time>
      </trkpt>
      <trkpt lat="48.39839" lon="2.66409">
        <ele>115.5</ele>
        <time>2019-09-25T13:24:08Z</time>
      </trkpt>
      <trkpt lat="48.39843" lon="2.66412">
        <ele>115.5</ele>
        <time>2019-09-25T13:24:24Z</time>
      </trkpt>
      <trkpt lat="48.39838" lon="2.66416">
        <ele>114.05</ele>
        <time>2019-09-25T13:24:39Z</time>
      </trkpt>
      <trkpt lat="48.39833" lon="2.66419">
        <ele>112.13</ele>
        <time>2019-09-25T13:24:53Z</time>
      </trkpt>
      <trkpt lat="48.39831" lon="2.66422">
        <ele>112.61</ele>
        <time>2019-09-25T13:25:09Z</time>
      </trkpt>
      <trkpt lat="48.39832" lon="2.66431">
        <ele>115.01</ele>
        <time>2019-09-25T13:25:28Z</time>
      </trkpt>
      <trkpt lat="48.39833" lon="2.66435">
        <ele>115.98</ele>
        <time>2019-09-25T13:25:45Z</time>
      </trkpt>
      <trkpt lat="48.39834" lon="2.66435">
        <ele>119.82</ele>
        <time>2019-09-25T13:26:02Z</time>
      </trkpt>
      <trkpt lat="48.39832" lon="2.66432">
        <ele>119.82</ele>
        <time>2019-09-25T13:26:22Z</time>
      </trkpt>
      <trkpt lat="48.39834" lon="2.66435">
        <ele>116.46</ele>
        <time>2019-09-25T13:26:40Z</time>
      </trkpt>
      <trkpt lat="48.39834" lon="2.66436">
        <ele>116.94</ele>
        <time>2019-09-25T13:27:04Z</time>
      </trkpt>
      <trkpt lat="48.39835" lon="2.66438">
        <ele>118.38</ele>
        <time>2019-09-25T13:27:31Z</time>
      </trkpt>
      <trkpt lat="48.3983" lon="2.66433">
        <ele>117.9</ele>
        <time>2019-09-25T13:27:48Z</time>
      </trkpt>
      <trkpt lat="48.39828" lon="2.66422">
        <ele>117.9</ele>
        <time>2019-09-25T13:28:05Z</time>
      </trkpt>
      <trkpt lat="48.39831" lon="2.66418">
        <ele>119.34</ele>
        <time>2019-09-25T13:28:28Z</time>
      </trkpt>
      <trkpt lat="48.39834" lon="2.66414">
        <ele>119.82</ele>
        <time>2019-09-25T13:28:45Z</time>
      </trkpt>
      <trkpt lat="48.39837" lon="2.6641">
        <ele>115.01</ele>
        <time>2019-09-25T13:29:02Z</time>
      </trkpt>
      <trkpt lat="48.39835" lon="2.66405">
        <ele>115.5</ele>
        <time>2019-09-25T13:29:19Z</time>
      </trkpt>
      <trkpt lat="48.39831" lon="2.66404">
        <ele>113.57</ele>
        <time>2019-09-25T13:29:33Z</time>
      </trkpt>
      <trkpt lat="48.39823" lon="2.66399">
        <ele>108.77</ele>
        <time>2019-09-25T13:29:50Z</time>
      </trkpt>
      <trkpt lat="48.39814" lon="2.66386">
        <ele>107.32</ele>
        <time>2019-09-25T13:30:05Z</time>
      </trkpt>
      <trkpt lat="48.39811" lon="2.66373">
        <ele>109.73</ele>
        <time>2019-09-25T13:30:21Z</time>
      </trkpt>
      <trkpt lat="48.39807" lon="2.66365">
        <ele>114.53</ele>
        <time>2019-09-25T13:30:43Z</time>
      </trkpt>
      <trkpt lat="48.398" lon="2.66354">
        <ele>115.98</ele>
        <time>2019-09-25T13:31:01Z</time>
      </trkpt>
      <trkpt lat="48.39794" lon="2.66344">
        <ele>116.46</ele>
        <time>2019-09-25T13:31:16Z</time>
      </trkpt>
      <trkpt lat="48.39789" lon="2.66333">
        <ele>116.46</ele>
        <time>2019-09-25T13:31:31Z</time>
      </trkpt>
      <trkpt lat="48.39788" lon="2.66315">
        <ele>112.13</ele>
        <time>2019-09-25T13:31:50Z</time>
      </trkpt>
      <trkpt lat="48.39795" lon="2.66302">
        <ele>110.69</ele>
        <time>2019-09-25T13:32:06Z</time>
      </trkpt>
      <trkpt lat="48.398" lon="2.66285">
        <ele>113.09</ele>
        <time>2019-09-25T13:32:21Z</time>
      </trkpt>
      <trkpt lat="48.39803" lon="2.66268">
        <ele>110.21</ele>
        <time>2019-09-25T13:32:36Z</time>
      </trkpt>
      <trkpt lat="48.39807" lon="2.66253">
        <ele>107.32</ele>
        <time>2019-09-25T13:32:51Z</time>
      </trkpt>
      <trkpt lat="48.39811" lon="2.66236">
        <ele>106.84</ele>
        <time>2019-09-25T13:33:04Z</time>
      </trkpt>
      <trkpt lat="48.3982" lon="2.66225">
        <ele>105.4</ele>
        <time>2019-09-25T13:33:18Z</time>
      </trkpt>
      <trkpt lat="48.39831" lon="2.66221">
        <ele>101.08</ele>
        <time>2019-09-25T13:33:35Z</time>
      </trkpt>
      <trkpt lat="48.39842" lon="2.66211">
        <ele>95.79</ele>
        <time>2019-09-25T13:33:52Z</time>
      </trkpt>
      <trkpt lat="48.39847" lon="2.66196">
        <ele>95.31</ele>
        <time>2019-09-25T13:34:07Z</time>
      </trkpt>
      <trkpt lat="48.39851" lon="2.66179">
        <ele>97.23</ele>
        <time>2019-09-25T13:34:23Z</time>
      </trkpt>
      <trkpt lat="48.39854" lon="2.66165">
        <ele>97.71</ele>
        <time>2019-09-25T13:34:38Z</time>
      </trkpt>
      <trkpt lat="48.39853" lon="2.66157">
        <ele>100.11</ele>
        <time>2019-09-25T13:34:53Z</time>
      </trkpt>
      <trkpt lat="48.39852" lon="2.66146">
        <ele>102.52</ele>
        <time>2019-09-25T13:35:07Z</time>
      </trkpt>
      <trkpt lat="48.3986" lon="2.66134">
        <ele>101.56</ele>
        <time>2019-09-25T13:35:22Z</time>
      </trkpt>
      <trkpt lat="48.39867" lon="2.6613">
        <ele>98.19</ele>
        <time>2019-09-25T13:35:37Z</time>
      </trkpt>
      <trkpt lat="48.39869" lon="2.66127">
        <ele>98.67</ele>
        <time>2019-09-25T13:35:54Z</time>
      </trkpt>
      <trkpt lat="48.39873" lon="2.66118">
        <ele>98.67</ele>
        <time>2019-09-25T13:36:13Z</time>
      </trkpt>
      <trkpt lat="48.39871" lon="2.66106">
        <ele>99.15</ele>
        <time>2019-09-25T13:36:30Z</time>
      </trkpt>
      <trkpt lat="48.39876" lon="2.66089">
        <ele>100.6</ele>
        <time>2019-09-25T13:36:52Z</time>
      </trkpt>
      <trkpt lat="48.39883" lon="2.66072">
        <ele>103</ele>
        <time>2019-09-25T13:37:12Z</time>
      </trkpt>
      <trkpt lat="48.39888" lon="2.66066">
        <ele>103.96</ele>
        <time>2019-09-25T13:37:27Z</time>
      </trkpt>
      <trkpt lat="48.399" lon="2.6605">
        <ele>103.48</ele>
        <time>2019-09-25T13:37:50Z</time>
      </trkpt>
      <trkpt lat="48.3991" lon="2.66053">
        <ele>104.44</ele>
        <time>2019-09-25T13:38:17Z</time>
      </trkpt>
      <trkpt lat="48.3992" lon="2.66044">
        <ele>104.44</ele>
        <time>2019-09-25T13:38:39Z</time>
      </trkpt>
      <trkpt lat="48.39928" lon="2.66017">
        <ele>111.65</ele>
        <time>2019-09-25T13:39:03Z</time>
      </trkpt>
      <trkpt lat="48.39926" lon="2.66006">
        <ele>113.09</ele>
        <time>2019-09-25T13:39:17Z</time>
      </trkpt>
      <trkpt lat="48.3993" lon="2.65994">
        <ele>112.61</ele>
        <time>2019-09-25T13:39:37Z</time>
      </trkpt>
      <trkpt lat="48.3994" lon="2.65967">
        <ele>106.36</ele>
        <time>2019-09-25T13:40:04Z</time>
      </trkpt>
      <trkpt lat="48.39945" lon="2.65948">
        <ele>103</ele>
        <time>2019-09-25T13:40:22Z</time>
      </trkpt>
      <trkpt lat="48.39948" lon="2.65938">
        <ele>98.19</ele>
        <time>2019-09-25T13:40:43Z</time>
      </trkpt>
      <trkpt lat="48.3995" lon="2.65922">
        <ele>100.6</ele>
        <time>2019-09-25T13:41:06Z</time>
      </trkpt>
      <trkpt lat="48.39953" lon="2.65905">
        <ele>104.92</ele>
        <time>2019-09-25T13:41:26Z</time>
      </trkpt>
      <trkpt lat="48.39958" lon="2.65903">
        <ele>105.4</ele>
        <time>2019-09-25T13:41:51Z</time>
      </trkpt>
      <trkpt lat="48.39961" lon="2.65883">
        <ele>105.88</ele>
        <time>2019-09-25T13:42:10Z</time>
      </trkpt>
      <trkpt lat="48.39964" lon="2.6588">
        <ele>103.96</ele>
        <time>2019-09-25T13:42:32Z</time>
      </trkpt>
      <trkpt lat="48.39966" lon="2.65867">
        <ele>107.81</ele>
        <time>2019-09-25T13:42:53Z</time>
      </trkpt>
      <trkpt lat="48.39968" lon="2.65859">
        <ele>105.88</ele>
        <time>2019-09-25T13:43:09Z</time>
      </trkpt>
      <trkpt lat="48.39963" lon="2.65851">
        <ele>105.4</ele>
        <time>2019-09-25T13:43:32Z</time>
      </trkpt>
      <trkpt lat="48.39966" lon="2.65838">
        <ele>104.92</ele>
        <time>2019-09-25T13:43:54Z</time>
      </trkpt>
      <trkpt lat="48.39969" lon="2.65832">
        <ele>106.36</ele>
        <time>2019-09-25T13:44:16Z</time>
      </trkpt>
      <trkpt lat="48.39971" lon="2.65823">
        <ele>108.29</ele>
        <time>2019-09-25T13:44:35Z</time>
      </trkpt>
      <trkpt lat="48.39973" lon="2.65807">
        <ele>106.84</ele>
        <time>2019-09-25T13:44:55Z</time>
      </trkpt>
      <trkpt lat="48.3998" lon="2.65791">
        <ele>105.4</ele>
        <time>2019-09-25T13:45:12Z</time>
      </trkpt>
      <trkpt lat="48.39983" lon="2.65776">
        <ele>105.4</ele>
        <time>2019-09-25T13:45:30Z</time>
      </trkpt>
      <trkpt lat="48.39986" lon="2.65769">
        <ele>103.96</ele>
        <time>2019-09-25T13:45:52Z</time>
      </trkpt>
      <trkpt lat="48.39986" lon="2.65767">
        <ele>104.44</ele>
        <time>2019-09-25T13:46:16Z</time>
      </trkpt>
      <trkpt lat="48.39989" lon="2.65761">
        <ele>106.36</ele>
        <time>2019-09-25T13:46:37Z</time>
      </trkpt>
      <trkpt lat="48.39982" lon="2.65756">
        <ele>104.44</ele>
        <time>2019-09-25T13:46:57Z</time>
      </trkpt>
      <trkpt lat="48.39988" lon="2.65744">
        <ele>102.52</ele>
        <time>2019-09-25T13:47:16Z</time>
      </trkpt>
      <trkpt lat="48.39989" lon="2.65739">
        <ele>99.15</ele>
        <time>2019-09-25T13:47:39Z</time>
      </trkpt>
      <trkpt lat="48.39991" lon="2.65731">
        <ele>96.75</ele>
        <time>2019-09-25T13:48:01Z</time>
      </trkpt>
      <trkpt lat="48.39993" lon="2.65721">
        <ele>97.23</ele>
        <time>2019-09-25T13:48:23Z</time>
      </trkpt>
      <trkpt lat="48.40003" lon="2.65712">
        <ele>99.15</ele>
        <time>2019-09-25T13:48:43Z</time>
      </trkpt>
      <trkpt lat="48.40001" lon="2.65703">
        <ele>98.67</ele>
        <time>2019-09-25T13:49:03Z</time>
      </trkpt>
      <trkpt lat="48.39994" lon="2.65693">
        <ele>99.63</ele>
        <time>2019-09-25T13:49:24Z</time>
      </trkpt>
      <trkpt lat="48.39995" lon="2.65675">
        <ele>102.52</ele>
        <time>2019-09-25T13:49:47Z</time>
      </trkpt>
      <trkpt lat="48.39995" lon="2.65665">
        <ele>102.52</ele>
        <time>2019-09-25T13:50:09Z</time>
      </trkpt>
      <trkpt lat="48.39993" lon="2.65653">
        <ele>105.4</ele>
        <time>2019-09-25T13:50:32Z</time>
      </trkpt>
      <trkpt lat="48.39987" lon="2.65643">
        <ele>110.21</ele>
        <time>2019-09-25T13:50:50Z</time>
      </trkpt>
      <trkpt lat="48.39985" lon="2.65629">
        <ele>110.69</ele>
        <time>2019-09-25T13:51:08Z</time>
      </trkpt>
      <trkpt lat="48.39983" lon="2.65607">
        <ele>112.61</ele>
        <time>2019-09-25T13:51:30Z</time>
      </trkpt>
      <trkpt lat="48.39982" lon="2.65598">
        <ele>113.09</ele>
        <time>2019-09-25T13:51:53Z</time>
      </trkpt>
      <trkpt lat="48.39978" lon="2.65586">
        <ele>115.98</ele>
        <time>2019-09-25T13:52:13Z</time>
      </trkpt>
      <trkpt lat="48.39978" lon="2.65576">
        <ele>119.34</ele>
        <time>2019-09-25T13:52:30Z</time>
      </trkpt>
      <trkpt lat="48.39977" lon="2.65566">
        <ele>119.34</ele>
        <time>2019-09-25T13:52:53Z</time>
      </trkpt>
      <trkpt lat="48.39977" lon="2.65559">
        <ele>120.3</ele>
        <time>2019-09-25T13:53:15Z</time>
      </trkpt>
      <trkpt lat="48.39975" lon="2.65557">
        <ele>121.26</ele>
        <time>2019-09-25T13:53:36Z</time>
      </trkpt>
      <trkpt lat="48.39979" lon="2.65555">
        <ele>121.26</ele>
        <time>2019-09-25T13:54:00Z</time>
      </trkpt>
      <trkpt lat="48.39982" lon="2.65553">
        <ele>121.26</ele>
        <time>2019-09-25T13:54:30Z</time>
      </trkpt>
      <trkpt lat="48.39986" lon="2.65552">
        <ele>123.19</ele>
        <time>2019-09-25T13:54:49Z</time>
      </trkpt>
      <trkpt lat="48.39987" lon="2.6555">
        <ele>123.19</ele>
        <time>2019-09-25T13:55:10Z</time>
      </trkpt>
      <trkpt lat="48.39989" lon="2.65545">
        <ele>123.67</ele>
        <time>2019-09-25T13:55:31Z</time>
      </trkpt>
      <trkpt lat="48.39987" lon="2.6554">
        <ele>124.63</ele>
        <time>2019-09-25T13:55:51Z</time>
      </trkpt>
      <trkpt lat="48.39985" lon="2.65542">
        <ele>125.11</ele>
        <time>2019-09-25T13:56:10Z</time>
      </trkpt>
      <trkpt lat="48.39987" lon="2.65537">
        <ele>125.11</ele>
        <time>2019-09-25T13:56:29Z</time>
      </trkpt>
      <trkpt lat="48.39989" lon="2.65535">
        <ele>127.03</ele>
        <time>2019-09-25T13:56:50Z</time>
      </trkpt>
      <trkpt lat="48.39989" lon="2.65531">
        <ele>127.03</ele>
        <time>2019-09-25T13:57:15Z</time>
      </trkpt>
      <trkpt lat="48.39988" lon="2.65529">
        <ele>127.51</ele>
        <time>2019-09-25T13:57:35Z</time>
      </trkpt>
      <trkpt lat="48.39988" lon="2.65525">
        <ele>127.99</ele>
        <time>2019-09-25T13:57:56Z</time>
      </trkpt>
      <trkpt lat="48.39984" lon="2.65524">
        <ele>127.99</ele>
        <time>2019-09-25T13:58:15Z</time>
      </trkpt>
      <trkpt lat="48.39983" lon="2.65517">
        <ele>126.55</ele>
        <time>2019-09-25T13:58:35Z</time>
      </trkpt>
      <trkpt lat="48.39979" lon="2.65498">
        <ele>123.19</ele>
        <time>2019-09-25T13:58:52Z</time>
      </trkpt>
      <trkpt lat="48.39978" lon="2.65482">
        <ele>120.78</ele>
        <time>2019-09-25T13:59:09Z</time>
      </trkpt>
      <trkpt lat="48.39982" lon="2.65464">
        <ele>120.3</ele>
        <time>2019-09-25T13:59:28Z</time>
      </trkpt>
      <trkpt lat="48.39988" lon="2.65444">
        <ele>119.82</ele>
        <time>2019-09-25T13:59:49Z</time>
      </trkpt>
      <trkpt lat="48.3999" lon="2.65432">
        <ele>120.3</ele>
        <time>2019-09-25T14:00:08Z</time>
      </trkpt>
      <trkpt lat="48.40003" lon="2.65427">
        <ele>117.9</ele>
        <time>2019-09-25T14:00:27Z</time>
      </trkpt>
      <trkpt lat="48.40015" lon="2.65413">
        <ele>120.78</ele>
        <time>2019-09-25T14:00:45Z</time>
      </trkpt>
      <trkpt lat="48.4002" lon="2.65398">
        <ele>121.26</ele>
        <time>2019-09-25T14:01:04Z</time>
      </trkpt>
      <trkpt lat="48.40023" lon="2.65377">
        <ele>121.26</ele>
        <time>2019-09-25T14:01:23Z</time>
      </trkpt>
      <trkpt lat="48.4002" lon="2.65354">
        <ele>123.19</ele>
        <time>2019-09-25T14:01:43Z</time>
      </trkpt>
      <trkpt lat="48.40022" lon="2.65347">
        <ele>121.74</ele>
        <time>2019-09-25T14:02:03Z</time>
      </trkpt>
      <trkpt lat="48.40022" lon="2.65346">
        <ele>124.15</ele>
        <time>2019-09-25T14:02:34Z</time>
      </trkpt>
      <trkpt lat="48.40023" lon="2.65347">
        <ele>124.63</ele>
        <time>2019-09-25T14:02:54Z</time>
      </trkpt>
      <trkpt lat="48.40016" lon="2.65341">
        <ele>125.59</ele>
        <time>2019-09-25T14:03:16Z</time>
      </trkpt>
      <trkpt lat="48.40007" lon="2.65339">
        <ele>124.63</ele>
        <time>2019-09-25T14:03:36Z</time>
      </trkpt>
      <trkpt lat="48.39995" lon="2.65322">
        <ele>120.3</ele>
        <time>2019-09-25T14:03:58Z</time>
      </trkpt>
      <trkpt lat="48.39997" lon="2.65303">
        <ele>118.86</ele>
        <time>2019-09-25T14:04:20Z</time>
      </trkpt>
      <trkpt lat="48.39997" lon="2.65303">
        <ele>118.86</ele>
        <time>2019-09-25T14:04:41Z</time>
      </trkpt>
      <trkpt lat="48.40001" lon="2.65294">
        <ele>122.22</ele>
        <time>2019-09-25T14:05:07Z</time>
      </trkpt>
      <trkpt lat="48.39992" lon="2.65294">
        <ele>122.71</ele>
        <time>2019-09-25T14:05:29Z</time>
      </trkpt>
      <trkpt lat="48.39986" lon="2.65288">
        <ele>118.86</ele>
        <time>2019-09-25T14:05:52Z</time>
      </trkpt>
      <trkpt lat="48.39977" lon="2.65292">
        <ele>121.26</ele>
        <time>2019-09-25T14:06:13Z</time>
      </trkpt>
      <trkpt lat="48.39971" lon="2.65278">
        <ele>121.74</ele>
        <time>2019-09-25T14:06:34Z</time>
      </trkpt>
      <trkpt lat="48.39963" lon="2.65271">
        <ele>119.82</ele>
        <time>2019-09-25T14:06:56Z</time>
      </trkpt>
      <trkpt lat="48.39959" lon="2.6526">
        <ele>119.34</ele>
        <time>2019-09-25T14:07:17Z</time>
      </trkpt>
      <trkpt lat="48.39959" lon="2.65241">
        <ele>120.3</ele>
        <time>2019-09-25T14:07:35Z</time>
      </trkpt>
      <trkpt lat="48.3996" lon="2.65229">
        <ele>121.74</ele>
        <time>2019-09-25T14:07:49Z</time>
      </trkpt>
      <trkpt lat="48.39969" lon="2.6522">
        <ele>119.82</ele>
        <time>2019-09-25T14:08:07Z</time>
      </trkpt>
      <trkpt lat="48.39979" lon="2.65204">
        <ele>120.78</ele>
        <time>2019-09-25T14:08:26Z</time>
      </trkpt>
      <trkpt lat="48.39976" lon="2.65211">
        <ele>120.78</ele>
        <time>2019-09-25T14:08:45Z</time>
      </trkpt>
      <trkpt lat="48.39975" lon="2.65215">
        <ele>120.3</ele>
        <time>2019-09-25T14:09:13Z</time>
      </trkpt>
      <trkpt lat="48.39973" lon="2.6522">
        <ele>123.19</ele>
        <time>2019-09-25T14:09:41Z</time>
      </trkpt>
      <trkpt lat="48.39974" lon="2.65215">
        <ele>125.11</ele>
        <time>2019-09-25T14:10:03Z</time>
      </trkpt>
      <trkpt lat="48.39983" lon="2.65206">
        <ele>132.8</ele>
        <time>2019-09-25T14:10:23Z</time>
      </trkpt>
      <trkpt lat="48.39977" lon="2.65198">
        <ele>132.8</ele>
        <time>2019-09-25T14:10:45Z</time>
      </trkpt>
      <trkpt lat="48.3997" lon="2.65206">
        <ele>129.92</ele>
        <time>2019-09-25T14:11:04Z</time>
      </trkpt>
      <trkpt lat="48.39967" lon="2.65216">
        <ele>125.59</ele>
        <time>2019-09-25T14:11:28Z</time>
      </trkpt>
      <trkpt lat="48.39962" lon="2.65197">
        <ele>122.22</ele>
        <time>2019-09-25T14:11:46Z</time>
      </trkpt>
      <trkpt lat="48.39964" lon="2.65166">
        <ele>119.82</ele>
        <time>2019-09-25T14:12:05Z</time>
      </trkpt>
      <trkpt lat="48.39975" lon="2.65128">
        <ele>124.15</ele>
        <time>2019-09-25T14:12:26Z</time>
      </trkpt>
      <trkpt lat="48.39986" lon="2.6511">
        <ele>123.19</ele>
        <time>2019-09-25T14:12:43Z</time>
      </trkpt>
      <trkpt lat="48.40001" lon="2.65093">
        <ele>121.26</ele>
        <time>2019-09-25T14:13:03Z</time>
      </trkpt>
      <trkpt lat="48.40017" lon="2.65096">
        <ele>118.38</ele>
        <time>2019-09-25T14:13:23Z</time>
      </trkpt>
      <trkpt lat="48.40039" lon="2.65098">
        <ele>116.94</ele>
        <time>2019-09-25T14:13:43Z</time>
      </trkpt>
      <trkpt lat="48.40048" lon="2.65105">
        <ele>116.94</ele>
        <time>2019-09-25T14:14:03Z</time>
      </trkpt>
      <trkpt lat="48.40056" lon="2.65102">
        <ele>116.46</ele>
        <time>2019-09-25T14:14:25Z</time>
      </trkpt>
      <trkpt lat="48.40072" lon="2.65109">
        <ele>116.94</ele>
        <time>2019-09-25T14:14:46Z</time>
      </trkpt>
      <trkpt lat="48.4008" lon="2.65105">
        <ele>122.22</ele>
        <time>2019-09-25T14:15:03Z</time>
      </trkpt>
      <trkpt lat="48.40086" lon="2.65074">
        <ele>122.22</ele>
        <time>2019-09-25T14:15:22Z</time>
      </trkpt>
      <trkpt lat="48.40093" lon="2.65052">
        <ele>122.22</ele>
        <time>2019-09-25T14:15:38Z</time>
      </trkpt>
      <trkpt lat="48.40096" lon="2.65029">
        <ele>120.78</ele>
        <time>2019-09-25T14:15:57Z</time>
      </trkpt>
      <trkpt lat="48.40097" lon="2.65008">
        <ele>115.01</ele>
        <time>2019-09-25T14:16:17Z</time>
      </trkpt>
      <trkpt lat="48.40094" lon="2.64976">
        <ele>118.86</ele>
        <time>2019-09-25T14:16:37Z</time>
      </trkpt>
      <trkpt lat="48.40097" lon="2.64949">
        <ele>120.3</ele>
        <time>2019-09-25T14:16:56Z</time>
      </trkpt>
      <trkpt lat="48.40107" lon="2.64926">
        <ele>120.3</ele>
        <time>2019-09-25T14:17:14Z</time>
      </trkpt>
      <trkpt lat="48.40116" lon="2.64902">
        <ele>121.26</ele>
        <time>2019-09-25T14:17:33Z</time>
      </trkpt>
      <trkpt lat="48.40117" lon="2.64883">
        <ele>119.82</ele>
        <time>2019-09-25T14:17:52Z</time>
      </trkpt>
      <trkpt lat="48.40113" lon="2.64858">
        <ele>119.82</ele>
        <time>2019-09-25T14:18:11Z</time>
      </trkpt>
      <trkpt lat="48.40113" lon="2.64837">
        <ele>118.86</ele>
        <time>2019-09-25T14:18:29Z</time>
      </trkpt>
      <trkpt lat="48.40114" lon="2.64817">
        <ele>115.01</ele>
        <time>2019-09-25T14:18:48Z</time>
      </trkpt>
      <trkpt lat="48.40122" lon="2.64787">
        <ele>117.9</ele>
        <time>2019-09-25T14:19:07Z</time>
      </trkpt>
      <trkpt lat="48.40123" lon="2.6477">
        <ele>118.38</ele>
        <time>2019-09-25T14:19:23Z</time>
      </trkpt>
      <trkpt lat="48.4012" lon="2.6476">
        <ele>118.38</ele>
        <time>2019-09-25T14:19:44Z</time>
      </trkpt>
      <trkpt lat="48.40119" lon="2.64759">
        <ele>119.82</ele>
        <time>2019-09-25T14:20:08Z</time>
      </trkpt>
      <trkpt lat="48.4013" lon="2.64764">
        <ele>118.86</ele>
        <time>2019-09-25T14:20:28Z</time>
      </trkpt>
      <trkpt lat="48.40137" lon="2.64743">
        <ele>122.71</ele>
        <time>2019-09-25T14:20:46Z</time>
      </trkpt>
      <trkpt lat="48.40144" lon="2.64723">
        <ele>124.63</ele>
        <time>2019-09-25T14:21:07Z</time>
      </trkpt>
      <trkpt lat="48.40152" lon="2.647">
        <ele>125.11</ele>
        <time>2019-09-25T14:21:25Z</time>
      </trkpt>
      <trkpt lat="48.40163" lon="2.64682">
        <ele>121.26</ele>
        <time>2019-09-25T14:21:46Z</time>
      </trkpt>
      <trkpt lat="48.40172" lon="2.64667">
        <ele>123.19</ele>
        <time>2019-09-25T14:22:02Z</time>
      </trkpt>
      <trkpt lat="48.40182" lon="2.64647">
        <ele>122.71</ele>
        <time>2019-09-25T14:22:20Z</time>
      </trkpt>
      <trkpt lat="48.40194" lon="2.64626">
        <ele>121.26</ele>
        <time>2019-09-25T14:22:38Z</time>
      </trkpt>
      <trkpt lat="48.402" lon="2.64616">
        <ele>117.42</ele>
        <time>2019-09-25T14:22:58Z</time>
      </trkpt>
      <trkpt lat="48.40195" lon="2.64627">
        <ele>115.5</ele>
        <time>2019-09-25T14:23:17Z</time>
      </trkpt>
      <trkpt lat="48.40206" lon="2.64595">
        <ele>117.42</ele>
        <time>2019-09-25T14:23:34Z</time>
      </trkpt>
      <trkpt lat="48.40215" lon="2.64575">
        <ele>121.74</ele>
        <time>2019-09-25T14:23:53Z</time>
      </trkpt>
      <trkpt lat="48.40223" lon="2.64556">
        <ele>121.74</ele>
        <time>2019-09-25T14:24:12Z</time>
      </trkpt>
      <trkpt lat="48.40228" lon="2.64532">
        <ele>120.3</ele>
        <time>2019-09-25T14:24:30Z</time>
      </trkpt>
      <trkpt lat="48.40229" lon="2.64518">
        <ele>117.42</ele>
        <time>2019-09-25T14:24:47Z</time>
      </trkpt>
      <trkpt lat="48.40233" lon="2.64502">
        <ele>117.42</ele>
        <time>2019-09-25T14:25:05Z</time>
      </trkpt>
      <trkpt lat="48.40237" lon="2.64475">
        <ele>117.9</ele>
        <time>2019-09-25T14:25:26Z</time>
      </trkpt>
      <trkpt lat="48.40241" lon="2.64456">
        <ele>118.38</ele>
        <time>2019-09-25T14:25:47Z</time>
      </trkpt>
      <trkpt lat="48.40239" lon="2.64431">
        <ele>117.9</ele>
        <time>2019-09-25T14:26:06Z</time>
      </trkpt>
      <trkpt lat="48.40234" lon="2.64417">
        <ele>118.86</ele>
        <time>2019-09-25T14:26:29Z</time>
      </trkpt>
      <trkpt lat="48.40236" lon="2.64393">
        <ele>122.71</ele>
        <time>2019-09-25T14:26:46Z</time>
      </trkpt>
      <trkpt lat="48.40237" lon="2.64369">
        <ele>121.74</ele>
        <time>2019-09-25T14:27:06Z</time>
      </trkpt>
      <trkpt lat="48.40238" lon="2.64355">
        <ele>123.19</ele>
        <time>2019-09-25T14:27:23Z</time>
      </trkpt>
      <trkpt lat="48.40241" lon="2.64342">
        <ele>123.19</ele>
        <time>2019-09-25T14:27:43Z</time>
      </trkpt>
      <trkpt lat="48.40246" lon="2.64327">
        <ele>125.11</ele>
        <time>2019-09-25T14:28:04Z</time>
      </trkpt>
      <trkpt lat="48.40246" lon="2.64326">
        <ele>119.34</ele>
        <time>2019-09-25T14:28:33Z</time>
      </trkpt>
      <trkpt lat="48.40251" lon="2.64299">
        <ele>124.15</ele>
        <time>2019-09-25T14:28:50Z</time>
      </trkpt>
      <trkpt lat="48.40245" lon="2.64288">
        <ele>121.74</ele>
        <time>2019-09-25T14:29:14Z</time>
      </trkpt>
      <trkpt lat="48.40248" lon="2.64283">
        <ele>121.74</ele>
        <time>2019-09-25T14:29:43Z</time>
      </trkpt>
      <trkpt lat="48.40246" lon="2.64281">
        <ele>124.63</ele>
        <time>2019-09-25T14:30:12Z</time>
      </trkpt>
      <trkpt lat="48.40246" lon="2.64282">
        <ele>130.88</ele>
        <time>2019-09-25T14:30:37Z</time>
      </trkpt>
      <trkpt lat="48.40253" lon="2.6429">
        <ele>123.67</ele>
        <time>2019-09-25T14:31:05Z</time>
      </trkpt>
      <trkpt lat="48.40262" lon="2.6428">
        <ele>125.59</ele>
        <time>2019-09-25T14:31:26Z</time>
      </trkpt>
      <trkpt lat="48.40256" lon="2.64282">
        <ele>131.84</ele>
        <time>2019-09-25T14:31:42Z</time>
      </trkpt>
      <trkpt lat="48.4026" lon="2.64277">
        <ele>129.92</ele>
        <time>2019-09-25T14:31:59Z</time>
      </trkpt>
      <trkpt lat="48.40266" lon="2.64258">
        <ele>125.59</ele>
        <time>2019-09-25T14:32:19Z</time>
      </trkpt>
      <trkpt lat="48.40271" lon="2.64245">
        <ele>122.22</ele>
        <time>2019-09-25T14:32:36Z</time>
      </trkpt>
      <trkpt lat="48.40276" lon="2.64221">
        <ele>123.67</ele>
        <time>2019-09-25T14:32:56Z</time>
      </trkpt>
      <trkpt lat="48.40275" lon="2.64201">
        <ele>122.22</ele>
        <time>2019-09-25T14:33:15Z</time>
      </trkpt>
      <trkpt lat="48.40275" lon="2.64186">
        <ele>116.94</ele>
        <time>2019-09-25T14:33:36Z</time>
      </trkpt>
      <trkpt lat="48.40276" lon="2.64159">
        <ele>112.13</ele>
        <time>2019-09-25T14:33:54Z</time>
      </trkpt>
      <trkpt lat="48.40276" lon="2.64124">
        <ele>114.05</ele>
        <time>2019-09-25T14:34:12Z</time>
      </trkpt>
      <trkpt lat="48.4027" lon="2.641">
        <ele>117.42</ele>
        <time>2019-09-25T14:34:35Z</time>
      </trkpt>
      <trkpt lat="48.4027" lon="2.64096">
        <ele>116.94</ele>
        <time>2019-09-25T14:35:01Z</time>
      </trkpt>
      <trkpt lat="48.40276" lon="2.64087">
        <ele>121.26</ele>
        <time>2019-09-25T14:35:31Z</time>
      </trkpt>
      <trkpt lat="48.40285" lon="2.64066">
        <ele>123.67</ele>
        <time>2019-09-25T14:35:48Z</time>
      </trkpt>
      <trkpt lat="48.40291" lon="2.64039">
        <ele>122.71</ele>
        <time>2019-09-25T14:36:11Z</time>
      </trkpt>
      <trkpt lat="48.40303" lon="2.64019">
        <ele>124.15</ele>
        <time>2019-09-25T14:36:30Z</time>
      </trkpt>
      <trkpt lat="48.40305" lon="2.64014">
        <ele>126.55</ele>
        <time>2019-09-25T14:36:49Z</time>
      </trkpt>
      <trkpt lat="48.4031" lon="2.64003">
        <ele>125.11</ele>
        <time>2019-09-25T14:37:08Z</time>
      </trkpt>
      <trkpt lat="48.40325" lon="2.63997">
        <ele>121.26</ele>
        <time>2019-09-25T14:37:30Z</time>
      </trkpt>
      <trkpt lat="48.40341" lon="2.63986">
        <ele>121.74</ele>
        <time>2019-09-25T14:37:53Z</time>
      </trkpt>
      <trkpt lat="48.40349" lon="2.63973">
        <ele>123.67</ele>
        <time>2019-09-25T14:38:15Z</time>
      </trkpt>
      <trkpt lat="48.40348" lon="2.6396">
        <ele>122.22</ele>
        <time>2019-09-25T14:38:34Z</time>
      </trkpt>
      <trkpt lat="48.40354" lon="2.6395">
        <ele>122.71</ele>
        <time>2019-09-25T14:38:54Z</time>
      </trkpt>
      <trkpt lat="48.40356" lon="2.63928">
        <ele>125.11</ele>
        <time>2019-09-25T14:39:13Z</time>
      </trkpt>
      <trkpt lat="48.40355" lon="2.63904">
        <ele>124.15</ele>
        <time>2019-09-25T14:39:34Z</time>
      </trkpt>
      <trkpt lat="48.40358" lon="2.63875">
        <ele>126.07</ele>
        <time>2019-09-25T14:39:55Z</time>
      </trkpt>
      <trkpt lat="48.40376" lon="2.63861">
        <ele>123.67</ele>
        <time>2019-09-25T14:40:15Z</time>
      </trkpt>
      <trkpt lat="48.4039" lon="2.63856">
        <ele>122.22</ele>
        <time>2019-09-25T14:40:34Z</time>
      </trkpt>
      <trkpt lat="48.40404" lon="2.63842">
        <ele>118.38</ele>
        <time>2019-09-25T14:40:56Z</time>
      </trkpt>
      <trkpt lat="48.40409" lon="2.63832">
        <ele>114.05</ele>
        <time>2019-09-25T14:41:15Z</time>
      </trkpt>
      <trkpt lat="48.4041" lon="2.63827">
        <ele>115.98</ele>
        <time>2019-09-25T14:41:40Z</time>
      </trkpt>
      <trkpt lat="48.40408" lon="2.63827">
        <ele>122.71</ele>
        <time>2019-09-25T14:42:11Z</time>
      </trkpt>
      <trkpt lat="48.40409" lon="2.63828">
        <ele>124.15</ele>
        <time>2019-09-25T14:42:39Z</time>
      </trkpt>
      <trkpt lat="48.40416" lon="2.63827">
        <ele>125.11</ele>
        <time>2019-09-25T14:42:57Z</time>
      </trkpt>
      <trkpt lat="48.40413" lon="2.63826">
        <ele>127.51</ele>
        <time>2019-09-25T14:43:15Z</time>
      </trkpt>
      <trkpt lat="48.40408" lon="2.63825">
        <ele>129.92</ele>
        <time>2019-09-25T14:43:42Z</time>
      </trkpt>
      <trkpt lat="48.40408" lon="2.63816">
        <ele>131.36</ele>
        <time>2019-09-25T14:44:06Z</time>
      </trkpt>
      <trkpt lat="48.40411" lon="2.63797">
        <ele>132.32</ele>
        <time>2019-09-25T14:44:29Z</time>
      </trkpt>
      <trkpt lat="48.40418" lon="2.63815">
        <ele>129.43</ele>
        <time>2019-09-25T14:44:47Z</time>
      </trkpt>
      <trkpt lat="48.40416" lon="2.63819">
        <ele>130.4</ele>
        <time>2019-09-25T14:45:07Z</time>
      </trkpt>
      <trkpt lat="48.40415" lon="2.63816">
        <ele>127.99</ele>
        <time>2019-09-25T14:45:20Z</time>
      </trkpt>
      <trkpt lat="48.40416" lon="2.63816">
        <ele>126.07</ele>
        <time>2019-09-25T14:45:41Z</time>
      </trkpt>
      <trkpt lat="48.40418" lon="2.63811">
        <ele>127.51</ele>
        <time>2019-09-25T14:46:00Z</time>
      </trkpt>
    </trkseg>
  </trk>
</gpx>